Time;durP1;ratioP1;P1;durP2;ratioP2;P2;SDS_P1;SDS_P2;PMS_P1;PMS_P2;Temp;Humidity;BMP_temperature;BMP_pressure;BME280_temperature;BME280_humidity;BME280_pressure;Samples;Min_cycle;Max_cycle;Signal;HPM_P1;HPM_P2
2023/02/10 12:22:08;;;;;;;;;16.25;14.50;;;;;;;;5171548;27;49758;-67
2023/02/10 12:24:39;;;;;;;;;12.75;10.75;;;;;;;;5177505;27;20823;-67
2023/02/10 12:27:14;;;;;;;;;19.50;16.75;;;;;;;;5177945;27;12077;-67
2023/02/10 12:29:45;;;;;;;;;15.00;13.50;;;;;;;;5177396;27;11458;-68
2023/02/10 12:32:29;;;;;;;;;14.75;14.50;;;;;;;;5171047;27;12253;-66
2023/02/10 12:35:03;;;;;;;;;16.00;13.00;;;;;;;;5177470;27;11640;-67
2023/02/10 12:38:33;;;;;;;;;15.00;11.50;;;;;;;;5104687;27;13401;-66
2023/02/10 12:41:07;;;;;;;;;12.75;12.75;;;;;;;;5127709;27;11493;-66
2023/02/10 12:43:51;;;;;;;;;9.00;8.00;;;;;;;;5127232;27;11505;-67
2023/02/10 12:46:21;;;;;;;;;12.75;6.00;;;;;;;;5127701;27;11643;-67
2023/02/10 12:48:53;;;;;;;;;17.50;14.00;;;;;;;;5120402;27;11460;-68
2023/02/10 12:51:18;;;;;;;;;15.25;12.00;;;;;;;;5106774;28;11524;-66
2023/02/10 12:53:54;;;;;;;;;14.50;12.00;;;;;;;;5105359;28;11512;-67
2023/02/10 12:56:37;;;;;;;;;14.25;10.25;;;;;;;;5106663;28;8819;-67
2023/02/10 12:59:09;;;;;;;;;20.00;17.00;;;;;;;;5105413;28;11505;-67
2023/02/10 13:01:46;;;;;;;;;22.00;10.67;;;;;;;;5106347;28;12224;-67
2023/02/10 13:04:22;;;;;;;;;19.00;14.33;;;;;;;;5106753;28;11614;-68
2023/02/10 13:06:54;;;;;;;;;19.67;16.67;;;;;;;;5106482;28;11500;-67
2023/02/10 13:09:26;;;;;;;;;19.00;15.00;;;;;;;;5106383;28;11496;-65
2023/02/10 13:12:10;;;;;;;;;19.00;18.33;;;;;;;;5106638;28;11567;-63
2023/02/10 13:14:37;;;;;;;;;17.00;14.33;;;;;;;;5106566;28;11455;-71
2023/02/10 13:17:02;;;;;;;;;17.33;13.00;;;;;;;;5106783;28;11498;-68
2023/02/10 13:19:33;;;;;;;;;20.50;12.75;;;;;;;;5106381;28;12250;-68
2023/02/10 13:22:03;;;;;;;;;13.75;9.50;;;;;;;;5106671;28;8939;-67
2023/02/10 13:24:49;;;;;;;;;2.67;1.00;;;;;;;;5102546;28;11662;-63
2023/02/10 13:27:20;;;;;;;;;15.75;13.00;;;;;;;;5104504;28;11453;-69
2023/02/10 13:29:45;;;;;;;;;17.67;15.00;;;;;;;;5106139;28;11553;-65
2023/02/10 13:32:20;;;;;;;;;16.67;15.67;;;;;;;;5104643;28;11483;-65
2023/02/10 13:34:51;;;;;;;;;18.33;15.00;;;;;;;;5106075;28;8787;-64
2023/02/10 13:37:22;;;;;;;;;12.67;10.33;;;;;;;;5011527;27;70518;-66
2023/02/10 13:39:55;;;;;;;;;15.00;12.00;;;;;;;;5037183;28;11738;-65
2023/02/10 13:42:29;;;;;;;;;13.75;11.00;;;;;;;;5023415;28;11629;-65
2023/02/10 13:44:59;;;;;;;;;12.00;11.33;;;;;;;;5023540;28;11645;-65
2023/02/10 13:47:27;;;;;;;;;13.33;10.67;;;;;;;;5021931;28;11553;-66
2023/02/10 13:50:00;;;;;;;;;18.67;15.67;;;;;;;;5009941;28;11539;-65
2023/02/10 13:52:27;;;;;;;;;16.33;11.67;;;;;;;;5010912;28;11656;-65
2023/02/10 13:54:54;;;;;;;;;11.00;11.00;;;;;;;;5029930;28;11528;-69
2023/02/10 13:57:33;;;;;;;;;15.75;14.25;;;;;;;;5030552;28;12351;-64
2023/02/10 14:00:13;;;;;;;;;19.33;15.00;;;;;;;;5031692;28;11610;-65
2023/02/10 14:02:38;;;;;;;;;18.00;13.00;;;;;;;;5031632;28;12353;-66
2023/02/10 14:05:20;;;;;;;;;13.00;9.50;;;;;;;;5031521;28;11533;-65
2023/02/10 14:07:45;;;;;;;;;14.00;14.00;;;;;;;;5031584;28;8788;-64
2023/02/10 14:10:20;;;;;;;;;13.00;10.25;;;;;;;;5031202;28;11539;-64
2023/02/10 14:12:57;;;;;;;;;16.00;12.75;;;;;;;;5031414;28;8783;-64
2023/02/10 14:15:24;;;;;;;;;8.25;8.25;;;;;;;;5030045;28;11525;-65
2023/02/10 14:17:57;;;;;;;;;12.25;12.00;;;;;;;;5031232;28;11559;-65
2023/02/10 14:20:38;;;;;;;;;12.75;11.25;;;;;;;;5029857;28;11586;-66
2023/02/10 14:23:05;;;;;;;;;14.75;12.50;;;;;;;;5031115;28;11539;-65
2023/02/10 14:25:33;;;;;;;;;13.75;12.00;;;;;;;;5031285;28;11554;-64
2023/02/10 14:27:58;;;;;;;;;13.75;10.00;;;;;;;;5031405;28;11536;-65
2023/02/10 14:30:37;;;;;;;;;8.00;8.00;;;;;;;;5031171;28;11620;-64
2023/02/10 14:33:04;;;;;;;;;10.50;9.00;;;;;;;;5030791;28;8956;-64
2023/02/10 14:35:34;;;;;;;;;6.25;6.25;;;;;;;;5030432;28;11634;-64
2023/02/10 14:37:59;;;;;;;;;3.00;2.00;;;;;;;;5030658;28;11578;-67
2023/02/10 14:40:27;;;;;;;;;11.00;9.00;;;;;;;;5030982;28;11465;-65
2023/02/10 14:42:52;;;;;;;;;8.50;6.75;;;;;;;;5030596;28;8842;-64
2023/02/10 14:45:22;;;;;;;;;15.00;10.50;;;;;;;;5030622;28;11471;-65
2023/02/10 14:47:52;;;;;;;;;8.00;8.00;;;;;;;;5032818;28;9018;-64
2023/02/10 14:50:38;;;;;;;;;12.00;9.50;;;;;;;;5031177;28;11531;-65
2023/02/10 14:53:04;;;;;;;;;12.75;12.00;;;;;;;;5029896;28;11541;-64
2023/02/10 14:55:40;;;;;;;;;9.00;9.00;;;;;;;;5030644;28;11514;-64
2023/02/10 14:58:18;;;;;;;;;10.00;8.50;;;;;;;;5030738;28;8980;-63
2023/02/10 15:00:53;;;;;;;;;7.75;7.75;;;;;;;;5029501;28;11476;-63
2023/02/10 15:03:18;;;;;;;;;8.50;8.50;;;;;;;;5030754;28;12297;-64
2023/02/10 15:05:47;;;;;;;;;11.00;8.00;;;;;;;;5030611;28;11515;-64
2023/02/10 15:08:16;;;;;;;;;11.50;7.50;;;;;;;;5030356;28;8819;-64
2023/02/10 15:10:46;;;;;;;;;10.50;8.00;;;;;;;;5030334;28;11579;-64
2023/02/10 15:13:11;;;;;;;;;12.50;10.00;;;;;;;;5030199;28;12317;-65
2023/02/10 15:15:39;;;;;;;;;11.00;9.00;;;;;;;;5030144;28;11526;-64
2023/02/10 15:18:07;;;;;;;;;11.75;9.00;;;;;;;;5030258;28;8828;-65
2023/02/10 15:20:34;;;;;;;;;11.00;7.75;;;;;;;;5030081;28;11629;-65
2023/02/10 15:22:59;;;;;;;;;10.50;10.00;;;;;;;;5029939;28;12235;-64
2023/02/10 15:25:27;;;;;;;;;13.00;5.50;;;;;;;;5029596;28;11633;-64
2023/02/10 15:27:54;;;;;;;;;11.00;8.50;;;;;;;;5030225;28;8804;-63
2023/02/10 15:30:28;;;;;;;;;7.75;7.50;;;;;;;;5030374;28;11587;-63
2023/02/10 15:32:55;;;;;;;;;11.00;10.00;;;;;;;;5030118;28;11550;-65
2023/02/10 15:35:21;;;;;;;;;12.00;10.00;;;;;;;;5029857;28;11527;-64
2023/02/10 15:37:49;;;;;;;;;13.25;12.50;;;;;;;;5027716;28;11539;-63
2023/02/10 15:40:20;;;;;;;;;16.00;11.00;;;;;;;;5029247;28;8791;-64
2023/02/10 15:42:55;;;;;;;;;14.75;13.00;;;;;;;;5028957;28;11614;-64
2023/02/10 15:45:21;;;;;;;;;14.25;10.25;;;;;;;;5029025;28;11530;-66
2023/02/10 15:48:08;;;;;;;;;13.75;11.00;;;;;;;;5029266;28;11535;-64
2023/02/10 15:50:34;;;;;;;;;11.00;10.25;;;;;;;;5029804;28;8804;-66
2023/02/10 15:53:00;;;;;;;;;11.50;11.00;;;;;;;;5029540;28;11534;-68
2023/02/10 15:55:34;;;;;;;;;15.25;12.25;;;;;;;;5029373;28;11544;-67
2023/02/10 15:58:02;;;;;;;;;13.50;12.00;;;;;;;;5029913;28;8946;-64
2023/02/10 16:00:29;;;;;;;;;16.00;16.00;;;;;;;;5030046;28;12324;-63
2023/02/10 16:02:55;;;;;;;;;13.00;13.00;;;;;;;;5029838;28;11632;-64
2023/02/10 16:05:21;;;;;;;;;16.75;13.00;;;;;;;;5029434;28;11828;-64
2023/02/10 16:07:46;;;;;;;;;8.75;8.00;;;;;;;;5029437;28;8811;-63
2023/02/10 16:10:19;;;;;;;;;10.50;10.50;;;;;;;;5029425;28;8830;-63
2023/02/10 16:12:45;;;;;;;;;12.50;12.50;;;;;;;;5028176;28;8910;-64
2023/02/10 16:15:19;;;;;;;;;16.50;12.50;;;;;;;;5029183;28;11740;-64
2023/02/10 16:17:46;;;;;;;;;17.00;13.33;;;;;;;;5029194;28;8842;-64
2023/02/10 16:20:19;;;;;;;;;16.25;14.00;;;;;;;;5029327;28;11526;-64
2023/02/10 16:22:45;;;;;;;;;13.67;10.67;;;;;;;;5029199;28;11638;-64
2023/02/10 16:25:11;;;;;;;;;14.50;13.50;;;;;;;;5029164;28;11676;-66
2023/02/10 16:27:36;;;;;;;;;16.67;13.00;;;;;;;;5029271;28;8854;-64
2023/02/10 16:30:01;;;;;;;;;11.00;10.75;;;;;;;;5029271;28;8768;-64
2023/02/10 16:32:26;;;;;;;;;13.33;11.67;;;;;;;;5029282;28;9451;-64
2023/02/10 16:34:52;;;;;;;;;13.25;11.00;;;;;;;;5028897;28;8905;-65
2023/02/10 16:37:18;;;;;;;;;12.67;11.00;;;;;;;;5028783;28;8839;-66
2023/02/10 16:39:43;;;;;;;;;19.67;11.00;;;;;;;;5029201;28;8808;-65
2023/02/10 16:42:09;;;;;;;;;13.00;10.33;;;;;;;;5028892;28;11553;-66
2023/02/10 16:44:34;;;;;;;;;10.00;10.00;;;;;;;;5029140;28;8795;-65
2023/02/10 16:47:00;;;;;;;;;8.67;7.67;;;;;;;;5029342;28;8846;-66
2023/02/10 16:49:25;;;;;;;;;8.00;7.67;;;;;;;;5029528;28;8784;-66
2023/02/10 16:51:50;;;;;;;;;15.33;10.33;;;;;;;;5028696;28;9538;-64
2023/02/10 16:54:15;;;;;;;;;13.00;11.00;;;;;;;;5028835;28;8923;-65
2023/02/10 16:56:41;;;;;;;;;11.00;11.00;;;;;;;;5027597;28;8980;-64
2023/02/10 16:59:07;;;;;;;;;13.25;10.00;;;;;;;;5029931;28;8875;-63
2023/02/10 17:01:32;;;;;;;;;7.67;7.67;;;;;;;;5026242;28;11671;-63
2023/02/10 17:03:58;;;;;;;;;13.00;9.33;;;;;;;;4957980;28;10511;-65
2023/02/10 17:06:24;;;;;;;;;17.33;10.33;;;;;;;;5015356;28;8867;-64
2023/02/10 17:08:49;;;;;;;;;10.33;10.33;;;;;;;;5024054;28;8811;-64
2023/02/10 17:11:15;;;;;;;;;16.00;12.33;;;;;;;;5028869;28;11495;-63
2023/02/10 17:13:40;;;;;;;;;12.33;9.67;;;;;;;;5024416;28;8832;-65
2023/02/10 17:16:06;;;;;;;;;10.00;10.00;;;;;;;;5019961;28;8833;-64
2023/02/10 17:18:31;;;;;;;;;12.33;10.67;;;;;;;;5022586;28;8824;-64
2023/02/10 17:20:56;;;;;;;;;17.33;12.67;;;;;;;;5028924;28;8918;-65
2023/02/10 17:23:21;;;;;;;;;13.00;12.00;;;;;;;;5029285;28;8804;-65
2023/02/10 17:25:47;;;;;;;;;9.67;9.67;;;;;;;;5031417;28;9023;-64
2023/02/10 17:28:14;;;;;;;;;10.00;10.00;;;;;;;;5030622;28;8823;-65
2023/02/10 17:30:41;;;;;;;;;17.33;11.33;;;;;;;;5030781;28;8845;-64
2023/02/10 17:33:07;;;;;;;;;11.33;11.33;;;;;;;;5031088;28;8827;-64
2023/02/10 17:35:32;;;;;;;;;12.00;12.00;;;;;;;;5030695;28;11645;-64
2023/02/10 17:40:44;;;;;;;;;9.00;9.00;;;;;;;;5028824;28;8804;-65
2023/02/10 17:43:10;;;;;;;;;13.00;12.00;;;;;;;;5031124;28;8808;-65
2023/02/10 17:45:38;;;;;;;;;9.00;9.00;;;;;;;;5030578;28;8827;-63
2023/02/10 17:48:06;;;;;;;;;20.00;10.67;;;;;;;;5030491;28;8815;-64
2023/02/10 17:50:31;;;;;;;;;19.67;16.67;;;;;;;;5030439;28;8803;-64
2023/02/10 17:52:56;;;;;;;;;7.67;6.67;;;;;;;;5030370;28;8796;-65
2023/02/10 17:55:22;;;;;;;;;13.00;12.33;;;;;;;;5030304;28;8836;-64
2023/02/10 17:57:47;;;;;;;;;16.33;12.00;;;;;;;;5031732;28;8858;-64
2023/02/10 18:00:13;;;;;;;;;17.00;12.67;;;;;;;;5031548;28;8816;-65
2023/02/10 18:02:40;;;;;;;;;14.33;12.67;;;;;;;;5032003;28;8811;-66
2023/02/10 18:05:05;;;;;;;;;13.67;13.67;;;;;;;;5031835;28;8799;-65
2023/02/10 18:07:31;;;;;;;;;15.00;12.67;;;;;;;;5031309;28;8920;-65
2023/02/10 18:09:56;;;;;;;;;17.33;14.33;;;;;;;;5029845;28;8949;-65
2023/02/10 18:12:21;;;;;;;;;14.33;12.67;;;;;;;;5031447;28;8933;-65
2023/02/10 18:14:48;;;;;;;;;14.67;12.33;;;;;;;;5029657;28;8826;-64
2023/02/10 18:17:14;;;;;;;;;24.33;18.33;;;;;;;;5031675;28;8952;-67
2023/02/10 18:19:40;;;;;;;;;16.00;15.00;;;;;;;;5031672;28;8796;-65
2023/02/10 18:22:06;;;;;;;;;18.67;17.33;;;;;;;;5031450;28;8826;-65
2023/02/10 18:24:31;;;;;;;;;15.67;12.33;;;;;;;;5031444;28;8776;-68
2023/02/10 18:26:57;;;;;;;;;18.33;16.00;;;;;;;;5031527;28;8822;-67
2023/02/10 18:29:22;;;;;;;;;13.00;13.00;;;;;;;;5031353;28;8827;-66
2023/02/10 18:31:47;;;;;;;;;13.00;13.00;;;;;;;;5031339;28;8818;-65
2023/02/10 18:34:13;;;;;;;;;19.00;16.00;;;;;;;;5030796;28;8820;-66
2023/02/10 18:36:38;;;;;;;;;16.00;16.00;;;;;;;;5031259;28;8835;-65
2023/02/10 18:39:03;;;;;;;;;21.33;15.67;;;;;;;;5030854;28;8838;-65
2023/02/10 18:41:29;;;;;;;;;17.00;16.00;;;;;;;;5031007;28;8946;-65
2023/02/10 18:43:54;;;;;;;;;14.33;14.33;;;;;;;;5030783;28;8815;-65
2023/02/10 18:46:20;;;;;;;;;14.67;14.67;;;;;;;;5030889;28;9774;-67
2023/02/10 18:48:45;;;;;;;;;16.00;14.33;;;;;;;;5029920;28;8811;-65
2023/02/10 18:51:11;;;;;;;;;15.67;13.67;;;;;;;;5029335;28;8815;-65
2023/02/10 18:53:37;;;;;;;;;16.00;13.67;;;;;;;;5024645;28;8922;-65
2023/02/10 18:56:13;;;;;;;;;18.33;15.67;;;;;;;;5029361;28;8788;-65
2023/02/10 18:58:43;;;;;;;;;18.67;15.33;;;;;;;;5026777;28;8816;-64
2023/02/10 19:01:11;;;;;;;;;15.33;15.33;;;;;;;;5028110;28;8918;-66
2023/02/10 19:03:37;;;;;;;;;15.33;12.33;;;;;;;;5026654;28;8808;-66
2023/02/10 19:06:03;;;;;;;;;19.00;15.00;;;;;;;;5027925;28;8844;-65
2023/02/10 19:08:28;;;;;;;;;18.67;15.67;;;;;;;;5029439;28;8784;-64
2023/02/10 19:10:58;;;;;;;;;19.00;15.33;;;;;;;;5027504;28;8796;-64
2023/02/10 19:13:23;;;;;;;;;18.33;14.33;;;;;;;;5030365;28;8796;-68
2023/02/10 19:15:49;;;;;;;;;15.00;15.00;;;;;;;;5030400;28;8864;-65
2023/02/10 19:18:14;;;;;;;;;6.00;4.00;;;;;;;;5031038;28;8823;-65
2023/02/10 19:20:39;;;;;;;;;12.67;12.67;;;;;;;;5030501;28;8795;-65
2023/02/10 19:23:04;;;;;;;;;16.67;13.00;;;;;;;;5030317;28;8928;-65
2023/02/10 19:25:29;;;;;;;;;19.67;15.00;;;;;;;;5030105;28;8788;-64
2023/02/10 19:27:55;;;;;;;;;26.33;25.00;;;;;;;;5030497;28;8953;-65
2023/02/10 19:30:20;;;;;;;;;62.00;50.33;;;;;;;;5029997;28;8819;-68
2023/02/10 19:32:45;;;;;;;;;70.67;51.67;;;;;;;;5030201;28;8788;-69
2023/02/10 19:35:11;;;;;;;;;47.67;42.67;;;;;;;;5030115;28;8795;-64
2023/02/10 19:37:38;;;;;;;;;78.75;59.75;;;;;;;;5029216;28;8840;-68
2023/02/10 19:40:04;;;;;;;;;77.00;57.00;;;;;;;;5028480;28;10148;-66
2023/02/10 19:42:29;;;;;;;;;107.75;80.50;;;;;;;;5028673;28;8811;-65
2023/02/10 19:44:54;;;;;;;;;102.75;78.25;;;;;;;;5028512;28;8811;-66
2023/02/10 19:47:20;;;;;;;;;101.00;78.00;;;;;;;;5028058;28;8811;-65
2023/02/10 19:49:45;;;;;;;;;61.67;48.00;;;;;;;;5028749;28;8764;-66
2023/02/10 19:52:10;;;;;;;;;15.00;13.00;;;;;;;;5028637;28;9516;-66
2023/02/10 19:54:35;;;;;;;;;16.00;12.67;;;;;;;;5029486;28;8834;-66
2023/02/10 19:57:01;;;;;;;;;15.00;11.33;;;;;;;;5029389;28;8827;-65
2023/02/10 19:59:26;;;;;;;;;17.33;10.67;;;;;;;;5029348;28;8776;-67
2023/02/10 20:01:51;;;;;;;;;11.33;11.33;;;;;;;;5029621;28;8787;-64
2023/02/10 20:04:16;;;;;;;;;12.00;12.00;;;;;;;;5029345;28;8784;-65
2023/02/10 20:06:43;;;;;;;;;17.33;10.00;;;;;;;;5029328;28;8803;-64
2023/02/10 20:09:09;;;;;;;;;16.00;10.67;;;;;;;;5029543;28;8800;-65
2023/02/10 20:11:34;;;;;;;;;16.67;12.00;;;;;;;;5025298;28;8893;-64
2023/02/10 20:14:00;;;;;;;;;9.00;9.00;;;;;;;;5020827;28;8811;-65
2023/02/10 20:16:25;;;;;;;;;8.33;8.33;;;;;;;;5030026;28;8828;-66
2023/02/10 20:18:51;;;;;;;;;13.00;13.00;;;;;;;;5030699;28;8791;-67
2023/02/10 20:21:16;;;;;;;;;12.67;12.67;;;;;;;;5029979;28;8784;-67
2023/02/10 20:23:42;;;;;;;;;15.00;10.00;;;;;;;;5029146;28;8799;-67
2023/02/10 20:26:09;;;;;;;;;13.00;11.33;;;;;;;;5027363;28;9558;-66
2023/02/10 20:28:34;;;;;;;;;7.67;7.67;;;;;;;;5029047;28;8847;-66
2023/02/10 20:31:00;;;;;;;;;12.67;10.00;;;;;;;;5028955;28;8818;-65
2023/02/10 20:33:26;;;;;;;;;9.00;7.00;;;;;;;;5028875;28;8831;-65
2023/02/10 20:35:58;;;;;;;;;13.00;12.67;;;;;;;;5032106;28;8922;-65
2023/02/10 20:38:23;;;;;;;;;11.33;10.00;;;;;;;;5037797;28;8841;-65
2023/02/10 20:40:49;;;;;;;;;12.33;12.00;;;;;;;;5035964;28;8839;-66
2023/02/10 20:43:14;;;;;;;;;13.00;10.67;;;;;;;;5038985;28;8778;-66
2023/02/10 20:45:39;;;;;;;;;15.00;13.00;;;;;;;;5038441;28;8798;-66
2023/02/10 20:48:04;;;;;;;;;18.00;12.67;;;;;;;;5037397;28;8809;-66
2023/02/10 20:50:30;;;;;;;;;21.00;17.33;;;;;;;;5033813;28;8808;-64
2023/02/10 20:52:55;;;;;;;;;24.00;18.67;;;;;;;;5047381;28;8802;-65
2023/02/10 20:55:20;;;;;;;;;21.00;19.00;;;;;;;;5032739;28;8834;-66
2023/02/10 20:57:45;;;;;;;;;19.67;15.33;;;;;;;;5017456;28;8826;-66
2023/02/10 21:00:11;;;;;;;;;18.67;16.67;;;;;;;;5021159;28;8809;-66
2023/02/10 21:02:37;;;;;;;;;21.67;14.33;;;;;;;;5042783;28;8837;-65
2023/02/10 21:05:02;;;;;;;;;16.00;16.00;;;;;;;;5039998;28;8847;-65
2023/02/10 21:07:27;;;;;;;;;13.67;10.00;;;;;;;;5041482;28;8906;-65
2023/02/10 21:09:53;;;;;;;;;13.00;12.67;;;;;;;;5042592;28;8872;-64
2023/02/10 21:12:18;;;;;;;;;21.33;16.00;;;;;;;;5042599;28;8805;-65
2023/02/10 21:14:44;;;;;;;;;18.33;15.00;;;;;;;;5041854;28;8832;-66
2023/02/10 21:17:09;;;;;;;;;29.33;21.67;;;;;;;;5041040;28;8809;-66
2023/02/10 21:19:34;;;;;;;;;11.33;10.00;;;;;;;;5042658;28;8777;-69
2023/02/10 21:22:00;;;;;;;;;12.00;10.00;;;;;;;;5034549;28;8822;-67
2023/02/10 21:24:25;;;;;;;;;13.33;10.67;;;;;;;;5018753;28;8821;-69
2023/02/10 21:26:51;;;;;;;;;14.00;12.00;;;;;;;;5026527;28;8960;-68
2023/02/10 21:29:16;;;;;;;;;19.00;12.33;;;;;;;;5022094;28;8788;-68
2023/02/10 21:31:42;;;;;;;;;9.33;7.67;;;;;;;;5024634;28;8801;-68
2023/02/10 21:34:08;;;;;;;;;9.00;6.00;;;;;;;;5020497;28;8792;-68
2023/02/10 21:36:34;;;;;;;;;10.67;8.00;;;;;;;;5021833;28;8962;-69
2023/02/10 21:39:00;;;;;;;;;9.33;6.33;;;;;;;;5020370;28;8775;-68
2023/02/10 21:41:40;;;;;;;;;9.00;6.33;;;;;;;;5026523;28;8835;-68
2023/02/10 21:44:06;;;;;;;;;11.33;9.00;;;;;;;;5026316;28;8822;-68
2023/02/10 21:46:32;;;;;;;;;13.33;12.33;;;;;;;;5026912;28;8799;-69
2023/02/10 21:48:57;;;;;;;;;12.67;9.33;;;;;;;;5019892;28;8806;-69
2023/02/10 21:51:23;;;;;;;;;11.00;10.00;;;;;;;;5028765;28;8812;-69
2023/02/10 21:53:48;;;;;;;;;8.67;6.33;;;;;;;;5031680;28;8846;-69
2023/02/10 21:56:13;;;;;;;;;7.00;7.00;;;;;;;;5031097;28;8815;-69
2023/02/10 21:58:39;;;;;;;;;9.00;9.00;;;;;;;;5031496;28;8791;-69
2023/02/10 22:01:11;;;;;;;;;9.33;7.67;;;;;;;;5031176;28;8832;-70
2023/02/10 22:03:37;;;;;;;;;12.67;9.67;;;;;;;;5031218;28;8796;-70
2023/02/10 22:06:03;;;;;;;;;10.67;9.00;;;;;;;;5031249;28;8812;-69
2023/02/10 22:08:29;;;;;;;;;10.67;10.67;;;;;;;;5029662;28;8822;-69
2023/02/10 22:10:55;;;;;;;;;10.67;10.67;;;;;;;;5028733;28;8909;-70
2023/02/10 22:13:20;;;;;;;;;9.00;9.00;;;;;;;;5030876;28;8820;-69
2023/02/10 22:15:50;;;;;;;;;15.33;12.00;;;;;;;;5030804;28;8893;-69
2023/02/10 22:18:15;;;;;;;;;10.67;8.33;;;;;;;;5031090;28;8884;-69
2023/02/10 22:20:41;;;;;;;;;11.67;10.67;;;;;;;;5031034;28;8792;-69
2023/02/10 22:23:06;;;;;;;;;12.00;12.00;;;;;;;;5030883;28;8818;-69
2023/02/10 22:25:31;;;;;;;;;12.00;12.00;;;;;;;;5030680;28;8838;-69
2023/02/10 22:27:56;;;;;;;;;19.00;12.00;;;;;;;;5030447;28;8792;-69
2023/02/10 22:30:21;;;;;;;;;17.33;15.00;;;;;;;;5030754;28;8884;-68
2023/02/10 22:32:47;;;;;;;;;19.67;14.33;;;;;;;;5030766;28;9490;-70
2023/02/10 22:35:12;;;;;;;;;16.67;14.33;;;;;;;;5031173;28;8819;-68
2023/02/10 22:37:37;;;;;;;;;20.33;18.33;;;;;;;;5030519;28;8827;-70
2023/02/10 22:40:03;;;;;;;;;24.33;22.00;;;;;;;;5030687;28;8808;-68
2023/02/10 22:42:29;;;;;;;;;21.67;20.33;;;;;;;;5031011;28;8907;-66
2023/02/10 22:44:54;;;;;;;;;18.67;15.33;;;;;;;;5030733;28;8796;-66
2023/02/10 22:47:20;;;;;;;;;13.00;12.00;;;;;;;;5030437;28;8978;-65
2023/02/10 22:49:48;;;;;;;;;16.67;15.33;;;;;;;;5030390;28;8799;-65
2023/02/10 22:52:14;;;;;;;;;18.00;15.00;;;;;;;;5030577;28;8842;-66
2023/02/10 22:54:39;;;;;;;;;20.00;17.33;;;;;;;;5029083;28;8804;-66
2023/02/10 22:57:04;;;;;;;;;17.33;12.00;;;;;;;;5030566;28;8827;-66
2023/02/10 22:59:29;;;;;;;;;19.67;18.33;;;;;;;;5030560;28;8816;-66
2023/02/10 23:01:55;;;;;;;;;15.00;13.67;;;;;;;;5030413;28;8791;-67
2023/02/10 23:04:20;;;;;;;;;17.33;15.33;;;;;;;;5030315;28;8796;-67
2023/02/10 23:06:46;;;;;;;;;19.67;16.33;;;;;;;;5030160;28;8792;-65
2023/02/10 23:09:12;;;;;;;;;21.00;16.67;;;;;;;;5030268;28;8818;-66
2023/02/10 23:11:39;;;;;;;;;24.00;19.00;;;;;;;;5030113;28;8888;-65
2023/02/10 23:14:05;;;;;;;;;22.33;18.33;;;;;;;;5028622;28;8843;-66
2023/02/10 23:16:30;;;;;;;;;27.67;20.00;;;;;;;;5030001;28;8871;-65
2023/02/10 23:18:56;;;;;;;;;25.67;21.00;;;;;;;;5030130;28;8894;-66
2023/02/10 23:21:22;;;;;;;;;19.67;18.33;;;;;;;;5029177;28;8784;-65
2023/02/10 23:23:48;;;;;;;;;22.00;18.00;;;;;;;;5028561;28;9522;-65
2023/02/10 23:26:13;;;;;;;;;23.00;22.00;;;;;;;;5029810;28;8811;-65
2023/02/10 23:28:38;;;;;;;;;23.33;22.00;;;;;;;;5028239;28;8808;-66
2023/02/10 23:31:10;;;;;;;;;22.00;22.00;;;;;;;;5029735;28;8791;-66
2023/02/10 23:33:36;;;;;;;;;26.00;23.67;;;;;;;;5029760;28;8796;-66
2023/02/10 23:36:03;;;;;;;;;33.00;25.33;;;;;;;;5029966;28;8799;-66
2023/02/10 23:38:28;;;;;;;;;22.00;20.67;;;;;;;;5029801;28;8811;-67
2023/02/10 23:40:53;;;;;;;;;26.67;26.33;;;;;;;;5030292;28;8897;-68
2023/02/10 23:43:18;;;;;;;;;25.00;25.00;;;;;;;;5033264;28;8796;-68
2023/02/10 23:45:43;;;;;;;;;;;;;;;;;;5026549;28;8808;-66
2023/02/10 23:48:08;;;;;;;;;;;;;;;;;;5025544;28;8254;-67
2023/02/10 23:50:34;;;;;;;;;;;;;;;;;;5025879;28;8629;-67
2023/02/10 23:52:59;;;;;;;;;;;;;;;;;;5026139;28;8644;-67
2023/02/10 23:55:24;;;;;;;;;;;;;;;;;;5025981;28;8550;-67
2023/02/10 23:57:49;;;;;;;;;;;;;;;;;;5025521;28;8393;-67
